Terminal Aerodrome Forecast
Issued by NWS Milwaukee/Sullivan, WI

Home | Current Version | Previous Version | Text Only | Print | Product List | Glossary On
Versions: 1 2 3 4 5 6 7 8 9 10 11 12 13 14 15
000
FTUS43 KMKX 200538
TAFMSN
TAF
KMSN 200538Z 2006/2106 13005KT P6SM BKN250
     FM201200 14007KT 3SM BR BKN110
     FM201500 15008KT 1/2SM FG OVC008
     FM201700 16010G19KT 3SM BR OVC010
     FM202100 16011G23KT 2SM -SHRA BR OVC030
     FM210100 18012KT 2SM -SHRA BR OVC010 WS020/17045KT=

USA.gov is the U.S. government's official web portal to all federal, state and local government web resources and services.